sensor_id;sensor_type;location;lat;lon;timestamp;temperature;humidity
37342;DHT22;58643;49.052;8.518;2023-11-19T08:57:53;13.60;99.90
37342;DHT22;58643;49.052;8.518;2023-11-19T09:00:19;13.40;99.90
37342;DHT22;58643;49.052;8.518;2023-11-19T09:02:46;13.60;99.90
37342;DHT22;58643;49.052;8.518;2023-11-19T09:05:11;14.80;99.90
37342;DHT22;58643;49.052;8.518;2023-11-19T09:07:38;14.10;99.90
37342;DHT22;58643;49.052;8.518;2023-11-19T09:10:03;15.00;99.90
37342;DHT22;58643;49.052;8.518;2023-11-19T09:12:30;13.80;99.90
37342;DHT22;58643;49.052;8.518;2023-11-19T09:14:56;13.80;99.90
37342;DHT22;58643;49.052;8.518;2023-11-19T09:17:21;13.80;99.90
37342;DHT22;58643;49.052;8.518;2023-11-19T09:19:47;14.20;99.90
37342;DHT22;58643;49.052;8.518;2023-11-19T09:22:12;14.10;99.90
37342;DHT22;58643;49.052;8.518;2023-11-19T09:24:38;16.00;99.90
37342;DHT22;58643;49.052;8.518;2023-11-19T09:27:04;15.10;99.90
37342;DHT22;58643;49.052;8.518;2023-11-19T09:29:31;14.00;99.90
37342;DHT22;58643;49.052;8.518;2023-11-19T09:31:56;16.20;99.90
37342;DHT22;58643;49.052;8.518;2023-11-19T09:34:22;13.90;99.90
37342;DHT22;58643;49.052;8.518;2023-11-19T09:36:48;14.00;99.90
37342;DHT22;58643;49.052;8.518;2023-11-19T09:39:13;13.80;99.90
37342;DHT22;58643;49.052;8.518;2023-11-19T09:41:43;14.00;99.90
37342;DHT22;58643;49.052;8.518;2023-11-19T09:44:10;15.60;99.90
37342;DHT22;58643;49.052;8.518;2023-11-19T09:46:37;14.40;99.90
37342;DHT22;58643;49.052;8.518;2023-11-19T09:49:03;14.00;99.90
37342;DHT22;58643;49.052;8.518;2023-11-19T09:51:30;14.10;99.90
37342;DHT22;58643;49.052;8.518;2023-11-19T09:53:55;14.40;99.90
37342;DHT22;58643;49.052;8.518;2023-11-19T09:56:21;14.40;99.90
37342;DHT22;58643;49.052;8.518;2023-11-19T09:58:47;13.50;99.90
37342;DHT22;58643;49.052;8.518;2023-11-19T10:01:13;14.20;99.90
37342;DHT22;58643;49.052;8.518;2023-11-19T10:03:39;16.90;99.90
37342;DHT22;58643;49.052;8.518;2023-11-19T10:06:06;14.50;99.90
37342;DHT22;58643;49.052;8.518;2023-11-19T10:08:32;14.80;99.90
37342;DHT22;58643;49.052;8.518;2023-11-19T10:10:58;15.10;99.90
37342;DHT22;58643;49.052;8.518;2023-11-19T10:13:28;16.50;99.90
37342;DHT22;58643;49.052;8.518;2023-11-19T10:15:53;14.60;99.90
37342;DHT22;58643;49.052;8.518;2023-11-19T10:18:23;17.20;99.90
37342;DHT22;58643;49.052;8.518;2023-11-19T10:20:49;14.90;99.90
37342;DHT22;58643;49.052;8.518;2023-11-19T10:23:15;15.60;99.90
37342;DHT22;58643;49.052;8.518;2023-11-19T10:25:40;14.50;99.90
37342;DHT22;58643;49.052;8.518;2023-11-19T10:28:06;15.20;99.90
37342;DHT22;58643;49.052;8.518;2023-11-19T10:30:31;15.60;99.90
37342;DHT22;58643;49.052;8.518;2023-11-19T10:33:03;15.20;99.90
37342;DHT22;58643;49.052;8.518;2023-11-19T10:35:29;15.10;99.90
37342;DHT22;58643;49.052;8.518;2023-11-19T10:37:54;13.40;99.90
37342;DHT22;58643;49.052;8.518;2023-11-19T10:40:20;16.90;99.90
37342;DHT22;58643;49.052;8.518;2023-11-19T10:42:46;15.40;99.90
37342;DHT22;58643;49.052;8.518;2023-11-19T10:45:32;16.60;99.90
37342;DHT22;58643;49.052;8.518;2023-11-19T10:47:59;18.00;99.90
37342;DHT22;58643;49.052;8.518;2023-11-19T10:50:26;18.20;99.90
37342;DHT22;58643;49.052;8.518;2023-11-19T10:52:53;16.90;99.90
37342;DHT22;58643;49.052;8.518;2023-11-19T10:55:20;18.30;99.90
37342;DHT22;58643;49.052;8.518;2023-11-19T10:57:51;15.90;99.90
37342;DHT22;58643;49.052;8.518;2023-11-19T11:00:17;17.50;99.90
37342;DHT22;58643;49.052;8.518;2023-11-19T11:02:44;17.60;99.90
37342;DHT22;58643;49.052;8.518;2023-11-19T11:05:11;16.80;99.90
37342;DHT22;58643;49.052;8.518;2023-11-19T11:07:37;16.30;99.90
37342;DHT22;58643;49.052;8.518;2023-11-19T11:10:05;16.00;99.90
37342;DHT22;58643;49.052;8.518;2023-11-19T11:12:34;15.70;99.90
37342;DHT22;58643;49.052;8.518;2023-11-19T11:15:01;15.80;99.90
37342;DHT22;58643;49.052;8.518;2023-11-19T11:17:27;16.30;99.90
37342;DHT22;58643;49.052;8.518;2023-11-19T11:19:53;15.50;99.90
37342;DHT22;58643;49.052;8.518;2023-11-19T11:22:19;15.60;99.90
37342;DHT22;58643;49.052;8.518;2023-11-19T11:24:59;16.40;99.90
37342;DHT22;58643;49.052;8.518;2023-11-19T11:30:10;13.60;99.90
37342;DHT22;58643;49.052;8.518;2023-11-19T11:35:14;14.80;99.90
37342;DHT22;58643;49.052;8.518;2023-11-19T11:37:45;15.80;99.90
37342;DHT22;58643;49.052;8.518;2023-11-19T11:40:15;14.80;99.90
37342;DHT22;58643;49.052;8.518;2023-11-19T11:42:41;15.50;99.90
37342;DHT22;58643;49.052;8.518;2023-11-19T11:45:07;17.40;99.90
37342;DHT22;58643;49.052;8.518;2023-11-19T11:55:26;18.40;99.90
37342;DHT22;58643;49.052;8.518;2023-11-19T11:57:51;19.00;99.90
37342;DHT22;58643;49.052;8.518;2023-11-19T12:03:00;19.50;99.90
37342;DHT22;58643;49.052;8.518;2023-11-19T12:05:26;19.50;99.90
37342;DHT22;58643;49.052;8.518;2023-11-19T12:07:55;19.50;99.90
37342;DHT22;58643;49.052;8.518;2023-11-19T12:10:26;20.10;99.90
37342;DHT22;58643;49.052;8.518;2023-11-19T12:12:58;19.40;99.90
37342;DHT22;58643;49.052;8.518;2023-11-19T12:15:24;18.80;99.90
37342;DHT22;58643;49.052;8.518;2023-11-19T12:17:52;19.20;99.90
37342;DHT22;58643;49.052;8.518;2023-11-19T12:20:18;19.40;99.90
37342;DHT22;58643;49.052;8.518;2023-11-19T12:22:44;19.70;99.90
37342;DHT22;58643;49.052;8.518;2023-11-19T12:25:11;19.30;99.90
37342;DHT22;58643;49.052;8.518;2023-11-19T12:27:41;19.50;99.90
37342;DHT22;58643;49.052;8.518;2023-11-19T12:30:07;18.60;99.90
37342;DHT22;58643;49.052;8.518;2023-11-19T12:32:43;18.10;99.90
37342;DHT22;58643;49.052;8.518;2023-11-19T12:35:09;18.50;99.90
37342;DHT22;58643;49.052;8.518;2023-11-19T12:37:47;20.20;99.90
37342;DHT22;58643;49.052;8.518;2023-11-19T12:40:20;17.90;99.90
37342;DHT22;58643;49.052;8.518;2023-11-19T12:42:46;16.60;99.90
37342;DHT22;58643;49.052;8.518;2023-11-19T12:45:12;16.70;99.90
37342;DHT22;58643;49.052;8.518;2023-11-19T12:47:39;16.40;99.90
37342;DHT22;58643;49.052;8.518;2023-11-19T12:50:05;17.50;99.90
37342;DHT22;58643;49.052;8.518;2023-11-19T12:52:32;16.10;99.90
37342;DHT22;58643;49.052;8.518;2023-11-19T12:54:58;16.40;99.90
37342;DHT22;58643;49.052;8.518;2023-11-19T12:57:42;16.30;99.90
37342;DHT22;58643;49.052;8.518;2023-11-19T13:00:08;16.80;99.90
37342;DHT22;58643;49.052;8.518;2023-11-19T13:02:48;16.50;99.90
37342;DHT22;58643;49.052;8.518;2023-11-19T13:05:30;16.40;99.90
37342;DHT22;58643;49.052;8.518;2023-11-19T13:08:07;16.30;99.90
37342;DHT22;58643;49.052;8.518;2023-11-19T13:10:33;17.60;99.90
37342;DHT22;58643;49.052;8.518;2023-11-19T13:13:00;17.70;99.90
37342;DHT22;58643;49.052;8.518;2023-11-19T13:15:25;16.10;99.90
37342;DHT22;58643;49.052;8.518;2023-11-19T13:17:51;16.20;99.90
37342;DHT22;58643;49.052;8.518;2023-11-19T13:20:18;16.20;99.90
37342;DHT22;58643;49.052;8.518;2023-11-19T13:25:41;16.10;99.90
37342;DHT22;58643;49.052;8.518;2023-11-19T13:28:08;16.40;99.90
37342;DHT22;58643;49.052;8.518;2023-11-19T13:30:35;16.20;99.90
37342;DHT22;58643;49.052;8.518;2023-11-19T13:33:00;16.80;99.90
37342;DHT22;58643;49.052;8.518;2023-11-19T13:35:26;17.70;99.90
37342;DHT22;58643;49.052;8.518;2023-11-19T13:37:53;17.70;99.90
37342;DHT22;58643;49.052;8.518;2023-11-19T13:40:19;18.30;99.90
37342;DHT22;58643;49.052;8.518;2023-11-19T13:42:44;18.40;99.90
37342;DHT22;58643;49.052;8.518;2023-11-19T13:45:10;17.90;99.90
37342;DHT22;58643;49.052;8.518;2023-11-19T13:47:38;17.40;99.90
37342;DHT22;58643;49.052;8.518;2023-11-19T13:50:09;17.70;99.90
37342;DHT22;58643;49.052;8.518;2023-11-19T13:52:39;17.30;99.90
37342;DHT22;58643;49.052;8.518;2023-11-19T13:55:05;17.30;99.90
37342;DHT22;58643;49.052;8.518;2023-11-19T13:57:32;17.60;99.90
37342;DHT22;58643;49.052;8.518;2023-11-19T13:59:57;17.90;99.90
37342;DHT22;58643;49.052;8.518;2023-11-19T14:02:23;17.60;99.90
37342;DHT22;58643;49.052;8.518;2023-11-19T14:04:48;17.90;99.90
37342;DHT22;58643;49.052;8.518;2023-11-19T14:07:14;17.20;99.90
37342;DHT22;58643;49.052;8.518;2023-11-19T14:09:41;18.40;99.90
37342;DHT22;58643;49.052;8.518;2023-11-19T14:12:07;16.50;99.90
37342;DHT22;58643;49.052;8.518;2023-11-19T14:14:32;16.30;99.90
37342;DHT22;58643;49.052;8.518;2023-11-19T14:16:58;16.80;99.90
37342;DHT22;58643;49.052;8.518;2023-11-19T14:19:23;15.70;99.90
37342;DHT22;58643;49.052;8.518;2023-11-19T14:21:49;16.10;99.90
37342;DHT22;58643;49.052;8.518;2023-11-19T14:24:14;16.00;99.90
37342;DHT22;58643;49.052;8.518;2023-11-19T14:26:40;15.60;99.90
37342;DHT22;58643;49.052;8.518;2023-11-19T14:29:05;15.80;99.90
37342;DHT22;58643;49.052;8.518;2023-11-19T14:31:31;15.60;99.90
37342;DHT22;58643;49.052;8.518;2023-11-19T14:33:57;15.50;99.90
37342;DHT22;58643;49.052;8.518;2023-11-19T14:36:23;16.70;99.90
37342;DHT22;58643;49.052;8.518;2023-11-19T14:38:48;15.40;99.90
37342;DHT22;58643;49.052;8.518;2023-11-19T14:41:14;15.50;99.90
37342;DHT22;58643;49.052;8.518;2023-11-19T14:43:39;15.40;99.90
37342;DHT22;58643;49.052;8.518;2023-11-19T14:46:05;15.40;99.90
37342;DHT22;58643;49.052;8.518;2023-11-19T14:48:31;15.50;99.90
37342;DHT22;58643;49.052;8.518;2023-11-19T14:50:57;17.00;99.90
37342;DHT22;58643;49.052;8.518;2023-11-19T14:53:23;16.50;99.90
